Time;durP1;ratioP1;P1;durP2;ratioP2;P2;SDS_P1;SDS_P2;PMS_P1;PMS_P2;Temp;Humidity;BMP_temperature;BMP_pressure;BME280_temperature;BME280_humidity;BME280_pressure;Samples;Min_cycle;Max_cycle;Signal;HPM_P1;HPM_P2
2022/12/05 00:02:15;;;;;;;7.83;0.63;;;;;;;;;;1703414;83;21073;-53
2022/12/05 00:04:42;;;;;;;4.80;0.63;;;;;;;;;;1699799;83;21057;-52
2022/12/05 00:07:10;;;;;;;2.73;0.90;;;;;;;;;;1698221;83;22420;-53
2022/12/05 00:09:36;;;;;;;3.83;0.70;;;;;;;;;;1693281;83;21097;-53
2022/12/05 00:12:03;;;;;;;6.33;0.70;;;;;;;;;;1699069;83;21827;-53
2022/12/05 00:14:29;;;;;;;6.90;0.70;;;;;;;;;;1705467;83;21483;-53
2022/12/05 00:16:56;;;;;;;3.40;0.70;;;;;;;;;;1687891;83;21070;-53
2022/12/05 00:19:23;;;;;;;2.70;0.80;;;;;;;;;;1703070;83;21066;-53
2022/12/05 00:21:49;;;;;;;2.07;0.60;;;;;;;;;;1698569;83;21550;-52
2022/12/05 00:24:16;;;;;;;2.07;0.53;;;;;;;;;;1699890;83;22041;-53
2022/12/05 00:26:42;;;;;;;4.10;0.80;;;;;;;;;;1701595;83;21150;-53
2022/12/05 00:29:09;;;;;;;3.40;0.60;;;;;;;;;;1700146;83;21094;-53
2022/12/05 00:31:36;;;;;;;5.70;0.70;;;;;;;;;;1702817;83;21093;-52
2022/12/05 00:34:02;;;;;;;1.30;0.50;;;;;;;;;;1697760;83;21066;-52
2022/12/05 00:36:30;;;;;;;3.43;0.83;;;;;;;;;;1702404;83;21829;-53
2022/12/05 00:38:58;;;;;;;3.73;0.60;;;;;;;;;;1698449;83;21054;-52
2022/12/05 00:41:25;;;;;;;4.50;0.80;;;;;;;;;;1694939;83;21093;-53
2022/12/05 00:43:52;;;;;;;2.20;0.60;;;;;;;;;;1694360;83;21323;-52
2022/12/05 00:46:21;;;;;;;1.40;0.60;;;;;;;;;;1699530;83;21540;-53
2022/12/05 00:48:47;;;;;;;1.20;0.70;;;;;;;;;;1700375;83;22007;-52
2022/12/05 00:51:19;;;;;;;1.70;0.77;;;;;;;;;;1700303;83;21046;-52
2022/12/05 00:53:46;;;;;;;2.30;0.70;;;;;;;;;;1692344;83;21070;-53
2022/12/05 00:56:15;;;;;;;4.73;0.70;;;;;;;;;;1700459;83;21535;-53
2022/12/05 00:58:41;;;;;;;1.47;0.63;;;;;;;;;;1703037;83;20999;-53
2022/12/05 01:01:22;;;;;;;5.77;0.80;;;;;;;;;;1706766;83;21909;-53
2022/12/05 01:03:51;;;;;;;4.63;0.70;;;;;;;;;;1705154;83;21483;-53
2022/12/05 01:06:19;;;;;;;2.57;0.60;;;;;;;;;;1698533;83;20987;-53
2022/12/05 01:08:45;;;;;;;2.53;0.63;;;;;;;;;;1704876;83;20998;-53
2022/12/05 01:11:14;;;;;;;3.30;0.80;;;;;;;;;;1702907;83;21010;-53
2022/12/05 01:13:40;;;;;;;3.03;0.73;;;;;;;;;;1702695;83;21789;-53
2022/12/05 01:16:08;;;;;;;4.10;0.90;;;;;;;;;;1703211;83;21031;-53
2022/12/05 01:18:34;;;;;;;3.17;0.73;;;;;;;;;;1675053;83;21034;-53
2022/12/05 01:21:03;;;;;;;3.43;0.63;;;;;;;;;;1704067;83;21563;-53
2022/12/05 01:23:30;;;;;;;2.03;0.50;;;;;;;;;;1699585;83;20995;-53
2022/12/05 01:25:56;;;;;;;5.00;0.70;;;;;;;;;;1699963;83;23130;-53
2022/12/05 01:28:22;;;;;;;6.47;1.00;;;;;;;;;;1700849;83;21136;-52
2022/12/05 01:30:48;;;;;;;2.03;0.60;;;;;;;;;;1698670;83;21101;-53
2022/12/05 01:33:15;;;;;;;6.07;0.50;;;;;;;;;;1699109;83;21073;-53
2022/12/05 01:35:41;;;;;;;3.37;0.60;;;;;;;;;;1696470;83;21102;-53
2022/12/05 01:38:09;;;;;;;3.87;0.70;;;;;;;;;;1701749;83;21791;-53
2022/12/05 01:40:35;;;;;;;2.37;0.80;;;;;;;;;;1701744;83;21010;-52
2022/12/05 01:43:02;;;;;;;3.10;0.97;;;;;;;;;;1698995;83;21081;-53
2022/12/05 01:45:35;;;;;;;2.43;0.60;;;;;;;;;;1695453;83;21113;-53
2022/12/05 01:48:02;;;;;;;4.40;0.70;;;;;;;;;;1693656;83;21311;-53
2022/12/05 01:50:29;;;;;;;3.63;0.80;;;;;;;;;;1701389;83;21761;-52
2022/12/05 01:52:55;;;;;;;4.70;0.67;;;;;;;;;;1703847;83;21077;-52
2022/12/05 01:55:21;;;;;;;3.20;0.70;;;;;;;;;;1704517;83;22095;-53
2022/12/05 01:57:47;;;;;;;4.63;0.60;;;;;;;;;;1708605;83;21034;-52
2022/12/05 02:00:16;;;;;;;4.70;0.60;;;;;;;;;;1707017;83;21084;-53
2022/12/05 02:02:45;;;;;;;5.43;0.70;;;;;;;;;;1702607;83;21828;-53
2022/12/05 02:05:15;;;;;;;3.90;1.00;;;;;;;;;;1709079;83;20994;-53
2022/12/05 02:07:42;;;;;;;1.20;0.60;;;;;;;;;;1707749;83;20982;-53
2022/12/05 02:10:09;;;;;;;5.07;0.70;;;;;;;;;;1706865;83;21112;-53
2022/12/05 02:12:36;;;;;;;1.23;0.50;;;;;;;;;;1702078;83;21084;-54
2022/12/05 02:15:18;;;;;;;3.63;0.60;;;;;;;;;;1704807;83;21817;-53
2022/12/05 02:18:11;;;;;;;3.57;0.50;;;;;;;;;;1703657;83;21557;-52
2022/12/05 02:20:44;;;;;;;1.87;0.70;;;;;;;;;;1697533;83;21424;-54
2022/12/05 02:23:41;;;;;;;4.50;0.80;;;;;;;;;;1702687;83;21539;-53
2022/12/05 02:26:23;;;;;;;2.33;0.83;;;;;;;;;;1708400;83;21493;-52
2022/12/05 02:28:53;;;;;;;4.17;0.80;;;;;;;;;;1706717;83;21971;-52
2022/12/05 02:31:34;;;;;;;2.67;0.67;;;;;;;;;;1705122;83;21125;-53
2022/12/05 02:34:09;;;;;;;4.03;0.60;;;;;;;;;;1700877;83;21085;-53
2022/12/05 02:36:41;;;;;;;5.17;0.57;;;;;;;;;;1705905;83;21093;-53
2022/12/05 02:39:14;;;;;;;1.73;0.60;;;;;;;;;;1703615;83;21058;-53
2022/12/05 02:41:56;;;;;;;2.57;0.60;;;;;;;;;;1709106;83;21836;-53
2022/12/05 02:44:26;;;;;;;1.87;0.67;;;;;;;;;;1702216;83;21287;-52
2022/12/05 02:46:52;;;;;;;1.93;0.60;;;;;;;;;;1706632;83;21471;-53
2022/12/05 02:49:21;;;;;;;9.07;1.10;;;;;;;;;;1703715;83;21124;-53
2022/12/05 02:51:49;;;;;;;1.93;1.03;;;;;;;;;;1706360;83;21014;-53
2022/12/05 02:54:17;;;;;;;4.23;0.77;;;;;;;;;;1705554;83;21837;-52
2022/12/05 02:56:44;;;;;;;2.73;0.63;;;;;;;;;;1701458;83;21077;-52
2022/12/05 02:59:11;;;;;;;4.60;0.60;;;;;;;;;;1699690;83;21085;-52
2022/12/05 03:01:37;;;;;;;1.20;0.63;;;;;;;;;;1701684;83;21065;-52
2022/12/05 03:04:04;;;;;;;2.60;0.70;;;;;;;;;;1697570;83;21061;-53
2022/12/05 03:06:36;;;;;;;2.50;1.07;;;;;;;;;;1701627;83;22582;-53
2022/12/05 03:09:09;;;;;;;4.30;0.77;;;;;;;;;;1704421;83;21649;-52
2022/12/05 03:11:44;;;;;;;6.80;0.70;;;;;;;;;;1698017;83;21457;-54
2022/12/05 03:14:14;;;;;;;3.67;0.60;;;;;;;;;;1706607;83;21575;-53
2022/12/05 03:16:43;;;;;;;2.60;0.60;;;;;;;;;;1702975;83;21429;-53
2022/12/05 03:19:13;;;;;;;3.60;0.60;;;;;;;;;;1700657;83;21711;-54
2022/12/05 03:21:49;;;;;;;5.07;0.97;;;;;;;;;;1695738;83;21623;-53
2022/12/05 03:24:15;;;;;;;4.37;0.63;;;;;;;;;;1699117;83;21002;-52
2022/12/05 03:27:03;;;;;;;3.27;0.50;;;;;;;;;;1706682;83;21100;-52
2022/12/05 03:29:42;;;;;;;2.43;0.60;;;;;;;;;;1707676;82;20976;-52
2022/12/05 03:32:14;;;;;;;5.73;0.60;;;;;;;;;;1697122;83;21779;-52
2022/12/05 03:35:03;;;;;;;3.80;0.70;;;;;;;;;;1702985;82;21144;-52
2022/12/05 03:37:48;;;;;;;2.13;0.67;;;;;;;;;;1704190;83;21415;-53
2022/12/05 03:40:37;;;;;;;3.57;0.60;;;;;;;;;;1703755;83;21594;-54
2022/12/05 03:43:10;;;;;;;2.47;0.60;;;;;;;;;;1700494;83;21374;-52
2022/12/05 03:45:40;;;;;;;3.17;0.60;;;;;;;;;;1694129;83;21901;-52
2022/12/05 03:48:15;;;;;;;1.77;0.57;;;;;;;;;;1705449;83;21034;-52
2022/12/05 03:50:43;;;;;;;1.57;0.60;;;;;;;;;;1699478;82;21026;-51
2022/12/05 03:53:12;;;;;;;1.13;0.60;;;;;;;;;;1715525;82;21428;-52
2022/12/05 03:55:38;;;;;;;2.77;0.60;;;;;;;;;;1721010;82;21008;-52
2022/12/05 03:58:08;;;;;;;5.13;0.87;;;;;;;;;;1722348;82;22541;-52
2022/12/05 04:00:36;;;;;;;2.17;0.60;;;;;;;;;;1716133;82;20974;-52
2022/12/05 04:03:18;;;;;;;4.30;1.30;;;;;;;;;;1716387;82;21451;-52
2022/12/05 04:05:50;;;;;;;1.87;0.50;;;;;;;;;;1719170;82;20987;-52
2022/12/05 04:08:22;;;;;;;3.87;0.80;;;;;;;;;;1719895;82;20979;-52
2022/12/05 04:10:49;;;;;;;2.73;0.70;;;;;;;;;;1721242;82;21794;-52
2022/12/05 04:13:32;;;;;;;1.33;0.50;;;;;;;;;;1723584;82;20947;-52
2022/12/05 04:18:53;;;;;;;3.63;0.60;;;;;;;;;;1714157;82;21081;-53
2022/12/05 04:21:38;;;;;;;1.50;0.60;;;;;;;;;;1718017;82;21041;-52
2022/12/05 04:27:02;;;;;;;3.00;0.70;;;;;;;;;;1721857;82;21365;-51
2022/12/05 04:29:30;;;;;;;2.10;0.63;;;;;;;;;;1678233;82;21163;-52
2022/12/05 04:31:59;;;;;;;4.23;0.63;;;;;;;;;;1726157;82;21021;-52
2022/12/05 04:34:27;;;;;;;3.60;0.80;;;;;;;;;;1722710;82;21093;-52
2022/12/05 04:36:56;;;;;;;1.40;0.70;;;;;;;;;;1714317;82;21844;-52
2022/12/05 04:39:31;;;;;;;3.10;0.77;;;;;;;;;;1722716;82;21428;-52
2022/12/05 04:42:00;;;;;;;4.40;0.87;;;;;;;;;;1724380;82;20994;-52
2022/12/05 04:44:35;;;;;;;4.43;0.67;;;;;;;;;;1722635;82;21027;-52
2022/12/05 04:47:03;;;;;;;8.43;1.13;;;;;;;;;;1718016;82;21013;-51
2022/12/05 04:49:29;;;;;;;4.60;1.07;;;;;;;;;;1719892;82;21837;-52
2022/12/05 04:51:58;;;;;;;2.93;0.70;;;;;;;;;;1723151;82;21257;-52
2022/12/05 04:54:30;;;;;;;2.70;0.70;;;;;;;;;;1702882;83;21077;-52
2022/12/05 04:57:05;;;;;;;8.13;1.00;;;;;;;;;;1698404;83;21159;-52
2022/12/05 04:59:32;;;;;;;3.57;0.80;;;;;;;;;;1696898;83;21760;-51
2022/12/05 05:02:01;;;;;;;5.43;0.93;;;;;;;;;;1698486;83;21781;-52
2022/12/05 05:04:33;;;;;;;4.93;1.37;;;;;;;;;;1691233;83;21403;-52
2022/12/05 05:07:06;;;;;;;3.67;1.00;;;;;;;;;;1701311;83;21129;-52
2022/12/05 05:09:33;;;;;;;3.15;0.80;;;;;;;;;;1680986;83;21081;-52
2022/12/05 05:12:00;;;;;;;6.63;1.00;;;;;;;;;;1700499;83;21097;-52
2022/12/05 05:14:26;;;;;;;6.33;0.90;;;;;;;;;;1699983;83;21815;-52
2022/12/05 05:16:52;;;;;;;4.03;0.80;;;;;;;;;;1699702;83;21504;-51
2022/12/05 05:19:18;;;;;;;4.67;0.90;;;;;;;;;;1706513;83;21090;-51
2022/12/05 05:21:44;;;;;;;2.00;0.67;;;;;;;;;;1700685;83;22123;-52
2022/12/05 05:24:11;;;;;;;4.20;0.80;;;;;;;;;;1698656;83;21109;-54
2022/12/05 05:26:39;;;;;;;12.33;1.60;;;;;;;;;;1702775;83;21889;-53
2022/12/05 05:29:05;;;;;;;3.73;0.90;;;;;;;;;;1700219;83;21136;-51
2022/12/05 05:31:31;;;;;;;4.60;0.90;;;;;;;;;;1699475;83;21065;-54
2022/12/05 05:33:58;;;;;;;1.70;0.80;;;;;;;;;;1697795;83;21574;-52
2022/12/05 05:36:25;;;;;;;4.70;0.80;;;;;;;;;;1700733;83;21100;-52
2022/12/05 05:38:55;;;;;;;4.10;0.87;;;;;;;;;;1699307;83;21829;-52
2022/12/05 05:41:24;;;;;;;2.20;0.70;;;;;;;;;;1694066;83;21323;-52
2022/12/05 05:43:50;;;;;;;3.53;0.80;;;;;;;;;;1695149;83;21057;-54
2022/12/05 05:46:17;;;;;;;6.23;0.90;;;;;;;;;;1698504;83;21560;-54
2022/12/05 05:48:43;;;;;;;2.27;0.87;;;;;;;;;;1703801;83;21595;-53
2022/12/05 05:51:11;;;;;;;3.00;0.80;;;;;;;;;;1702148;83;21837;-52
2022/12/05 05:53:37;;;;;;;6.90;1.53;;;;;;;;;;1699496;82;21066;-53
2022/12/05 05:56:09;;;;;;;3.87;1.27;;;;;;;;;;1698894;83;21323;-53
2022/12/05 05:58:35;;;;;;;6.80;1.10;;;;;;;;;;1705041;83;21057;-51
2022/12/05 06:01:06;;;;;;;7.83;1.43;;;;;;;;;;1702491;83;21108;-51
2022/12/05 06:03:34;;;;;;;7.03;0.90;;;;;;;;;;1695707;83;21317;-52
2022/12/05 06:06:02;;;;;;;5.27;1.50;;;;;;;;;;1699135;83;21109;-53
2022/12/05 06:08:29;;;;;;;5.13;1.33;;;;;;;;;;1697855;82;22190;-51
2022/12/05 06:10:56;;;;;;;8.43;1.40;;;;;;;;;;1701055;83;22271;-54
2022/12/05 06:13:22;;;;;;;4.43;1.40;;;;;;;;;;1702914;83;21552;-52
2022/12/05 06:15:49;;;;;;;2.63;1.00;;;;;;;;;;1701718;83;21817;-54
2022/12/05 06:18:15;;;;;;;6.13;1.30;;;;;;;;;;1698886;83;21053;-51
2022/12/05 06:22:25;;;;;;;2.80;0.90;;;;;;;;;;1776005;78;27964;-53
2022/12/05 06:24:57;;;;;;;4.10;0.80;;;;;;;;;;1746920;80;21574;-53
2022/12/05 06:27:25;;;;;;;4.37;1.93;;;;;;;;;;1727810;80;22006;-51
2022/12/05 06:29:51;;;;;;;4.70;1.10;;;;;;;;;;1744190;80;21056;-52
2022/12/05 06:32:18;;;;;;;4.97;1.00;;;;;;;;;;1737716;81;21475;-51
2022/12/05 06:34:44;;;;;;;2.50;0.83;;;;;;;;;;1741953;80;21143;-52
2022/12/05 06:37:11;;;;;;;4.53;0.90;;;;;;;;;;1745577;80;21499;-52
2022/12/05 06:39:37;;;;;;;5.77;0.90;;;;;;;;;;1739575;80;21894;-51
2022/12/05 06:42:04;;;;;;;4.07;1.50;;;;;;;;;;1743386;80;21123;-51
2022/12/05 06:44:31;;;;;;;5.63;1.27;;;;;;;;;;1744555;80;21640;-53
2022/12/05 06:46:57;;;;;;;5.13;0.87;;;;;;;;;;1743892;80;21038;-53
2022/12/05 06:49:26;;;;;;;9.37;1.40;;;;;;;;;;1741726;80;21077;-52
2022/12/05 06:51:52;;;;;;;4.10;0.90;;;;;;;;;;1736766;80;22002;-52
2022/12/05 06:54:19;;;;;;;3.10;0.87;;;;;;;;;;1745295;80;21088;-52
2022/12/05 06:56:45;;;;;;;5.43;1.20;;;;;;;;;;1743013;80;21061;-52
2022/12/05 06:59:11;;;;;;;1.90;1.07;;;;;;;;;;1742729;80;21037;-52
2022/12/05 07:01:37;;;;;;;3.30;0.97;;;;;;;;;;1741020;80;21517;-52
2022/12/05 07:04:11;;;;;;;2.73;1.00;;;;;;;;;;1741021;80;21773;-52
2022/12/05 07:06:38;;;;;;;3.22;0.90;;;;;;;;;;1744316;80;21487;-52
2022/12/05 07:09:05;;;;;;;2.97;1.10;;;;;;;;;;1739262;80;21061;-53
2022/12/05 07:11:31;;;;;;;4.53;1.00;;;;;;;;;;1744890;80;21038;-52
2022/12/05 07:13:58;;;;;;;1.90;0.90;;;;;;;;;;1741729;80;20965;-52
2022/12/05 07:16:24;;;;;;;5.33;1.40;;;;;;;;;;1743929;80;22228;-51
2022/12/05 07:18:50;;;;;;;4.23;1.20;;;;;;;;;;1738538;80;21073;-52
2022/12/05 07:21:17;;;;;;;9.57;1.20;;;;;;;;;;1729242;80;21051;-53
2022/12/05 07:23:44;;;;;;;2.93;1.00;;;;;;;;;;1715779;82;21725;-52
2022/12/05 07:26:12;;;;;;;4.13;1.00;;;;;;;;;;1711080;82;21061;-53
2022/12/05 07:28:38;;;;;;;4.37;0.97;;;;;;;;;;1715758;81;21835;-54
2022/12/05 07:31:06;;;;;;;4.57;1.20;;;;;;;;;;1717376;82;21522;-52
2022/12/05 07:33:33;;;;;;;3.50;1.00;;;;;;;;;;1707775;82;21409;-53
2022/12/05 07:36:00;;;;;;;5.53;1.30;;;;;;;;;;1723302;82;21034;-53
2022/12/05 07:38:26;;;;;;;4.53;1.10;;;;;;;;;;1715940;82;21599;-52
2022/12/05 07:40:52;;;;;;;4.00;1.67;;;;;;;;;;1716331;82;21810;-52
2022/12/05 07:43:19;;;;;;;13.70;2.53;;;;;;;;;;1713440;82;21022;-53
2022/12/05 07:45:45;;;;;;;14.13;3.03;;;;;;;;;;1711262;81;21256;-53
2022/12/05 07:48:11;;;;;;;5.70;1.97;;;;;;;;;;1713863;82;21041;-53
2022/12/05 07:50:37;;;;;;;12.67;2.97;;;;;;;;;;1711378;82;21557;-54
2022/12/05 07:53:04;;;;;;;13.53;2.70;;;;;;;;;;1715780;82;21705;-53
2022/12/05 07:55:31;;;;;;;11.20;2.63;;;;;;;;;;1711625;82;21077;-53
2022/12/05 07:57:58;;;;;;;14.40;3.27;;;;;;;;;;1710852;82;21617;-54
2022/12/05 08:00:24;;;;;;;9.03;2.57;;;;;;;;;;1711305;82;21078;-54
2022/12/05 08:02:51;;;;;;;7.70;2.53;;;;;;;;;;1717009;82;21069;-54
2022/12/05 08:05:17;;;;;;;9.70;2.97;;;;;;;;;;1715658;82;21784;-53
2022/12/05 08:07:43;;;;;;;7.83;2.10;;;;;;;;;;1713263;82;20977;-53
2022/12/05 08:10:09;;;;;;;8.57;2.97;;;;;;;;;;1717715;82;20979;-53
2022/12/05 08:12:36;;;;;;;10.60;3.90;;;;;;;;;;1714898;82;21931;-53
2022/12/05 08:15:04;;;;;;;10.17;2.30;;;;;;;;;;1714321;82;21543;-52
2022/12/05 08:17:32;;;;;;;8.97;2.73;;;;;;;;;;1718547;82;21756;-54
2022/12/05 08:19:58;;;;;;;7.03;2.23;;;;;;;;;;1709770;82;21009;-53
2022/12/05 08:22:24;;;;;;;6.70;1.27;;;;;;;;;;1711068;82;21511;-53
2022/12/05 08:24:50;;;;;;;9.20;2.77;;;;;;;;;;1716338;82;21038;-52
2022/12/05 08:27:17;;;;;;;5.10;1.93;;;;;;;;;;1709323;82;21057;-53
2022/12/05 08:29:43;;;;;;;7.00;2.57;;;;;;;;;;1714959;82;21893;-54
2022/12/05 08:32:10;;;;;;;10.53;2.70;;;;;;;;;;1719416;82;21422;-54
2022/12/05 08:34:36;;;;;;;7.33;2.23;;;;;;;;;;1715983;82;20963;-54
2022/12/05 08:37:02;;;;;;;8.27;2.67;;;;;;;;;;1711909;82;21046;-54
2022/12/05 08:39:29;;;;;;;8.80;2.73;;;;;;;;;;1715898;82;21006;-53
2022/12/05 08:41:55;;;;;;;5.93;1.90;;;;;;;;;;1718170;82;21776;-53
2022/12/05 08:44:21;;;;;;;5.27;1.93;;;;;;;;;;1717659;82;20983;-53
2022/12/05 08:46:48;;;;;;;11.43;3.17;;;;;;;;;;1709917;82;21010;-54
2022/12/05 08:49:14;;;;;;;4.73;1.87;;;;;;;;;;1714307;82;20994;-54
2022/12/05 08:51:41;;;;;;;6.90;2.17;;;;;;;;;;1714139;82;21011;-53
2022/12/05 08:54:07;;;;;;;5.40;2.40;;;;;;;;;;1716793;82;22321;-55
2022/12/05 08:56:34;;;;;;;6.90;2.97;;;;;;;;;;1718614;82;20995;-53
2022/12/05 08:59:03;;;;;;;8.67;2.53;;;;;;;;;;1715355;82;21454;-52
2022/12/05 09:01:32;;;;;;;9.17;2.10;;;;;;;;;;1709804;82;21487;-53
2022/12/05 09:04:03;;;;;;;5.93;1.97;;;;;;;;;;1720587;82;21490;-53
2022/12/05 09:06:35;;;;;;;6.20;2.10;;;;;;;;;;1717050;82;21026;-53
2022/12/05 09:09:05;;;;;;;4.70;2.23;;;;;;;;;;1715906;82;21126;-53
2022/12/05 09:11:34;;;;;;;3.67;1.47;;;;;;;;;;1698900;82;20979;-53
2022/12/05 09:14:00;;;;;;;6.67;1.60;;;;;;;;;;1714718;82;21426;-52
2022/12/05 09:16:33;;;;;;;4.50;2.20;;;;;;;;;;1711357;82;21560;-52
2022/12/05 09:18:59;;;;;;;6.77;2.30;;;;;;;;;;1681540;84;21812;-53
2022/12/05 09:21:27;;;;;;;5.10;2.20;;;;;;;;;;1717655;82;21125;-51
2022/12/05 09:23:54;;;;;;;4.23;1.83;;;;;;;;;;1716826;82;20979;-52
2022/12/05 09:26:23;;;;;;;5.97;2.50;;;;;;;;;;1718342;82;21057;-53
2022/12/05 09:28:51;;;;;;;4.87;2.00;;;;;;;;;;1713401;81;21078;-52
2022/12/05 09:31:20;;;;;;;7.33;2.27;;;;;;;;;;1711320;82;21937;-53
2022/12/05 09:33:46;;;;;;;4.57;2.00;;;;;;;;;;1712978;81;21606;-52
2022/12/05 09:36:16;;;;;;;6.17;2.57;;;;;;;;;;1713949;82;21068;-52
2022/12/05 09:38:42;;;;;;;9.97;2.67;;;;;;;;;;1714761;82;22115;-53
2022/12/05 09:44:21;;;;;;;9.47;2.70;;;;;;;;;;1712480;82;21784;-52
2022/12/05 09:46:57;;;;;;;8.77;2.27;;;;;;;;;;1714380;81;21022;-52
2022/12/05 09:49:23;;;;;;;9.13;2.13;;;;;;;;;;1718751;81;21055;-54
2022/12/05 09:51:49;;;;;;;4.37;2.23;;;;;;;;;;1712831;81;21965;-53
2022/12/05 09:54:15;;;;;;;8.83;2.73;;;;;;;;;;1712039;81;21097;-53
2022/12/05 09:56:42;;;;;;;7.60;2.80;;;;;;;;;;1715816;81;22458;-53
2022/12/05 10:00:50;;;;;;;8.43;3.23;;;;;;;;;;1788645;77;26013;-51
2022/12/05 10:03:36;;;;;;;5.27;2.23;;;;;;;;;;1773766;79;21016;-51
2022/12/05 10:06:09;;;;;;;7.43;2.43;;;;;;;;;;1774823;78;23015;-52
2022/12/05 10:08:54;;;;;;;10.77;3.67;;;;;;;;;;1780327;79;21049;-51
2022/12/05 10:11:24;;;;;;;6.27;2.27;;;;;;;;;;1684631;80;21521;-53
2022/12/05 10:13:54;;;;;;;7.83;2.73;;;;;;;;;;1776220;79;20973;-52
2022/12/05 10:16:27;;;;;;;8.17;3.07;;;;;;;;;;1780167;78;20991;-51
2022/12/05 10:18:59;;;;;;;10.17;3.10;;;;;;;;;;1775642;79;21780;-52
2022/12/05 10:21:31;;;;;;;6.77;2.73;;;;;;;;;;1764185;79;20999;-52
2022/12/05 10:23:59;;;;;;;6.50;2.10;;;;;;;;;;1758320;80;22090;-51
2022/12/05 10:26:29;;;;;;;7.40;2.53;;;;;;;;;;1749578;80;20997;-52
2022/12/05 10:29:11;;;;;;;11.30;3.07;;;;;;;;;;1747890;80;21006;-51
2022/12/05 10:31:37;;;;;;;6.77;2.53;;;;;;;;;;1752541;80;22523;-51
2022/12/05 10:34:24;;;;;;;5.30;2.27;;;;;;;;;;1754885;80;21053;-52
2022/12/05 10:36:54;;;;;;;11.07;2.87;;;;;;;;;;1755547;80;21584;-53
2022/12/05 10:39:20;;;;;;;7.90;2.57;;;;;;;;;;1757668;80;21040;-52
2022/12/05 10:41:46;;;;;;;10.33;2.97;;;;;;;;;;1752964;80;21032;-52
2022/12/05 10:44:12;;;;;;;9.03;3.60;;;;;;;;;;1751630;80;21793;-50
2022/12/05 10:46:39;;;;;;;16.07;3.40;;;;;;;;;;1746702;80;21370;-50
2022/12/05 10:49:11;;;;;;;8.10;3.80;;;;;;;;;;1755022;80;22528;-51
2022/12/05 10:51:38;;;;;;;8.37;3.03;;;;;;;;;;1753441;80;21044;-53
2022/12/05 10:54:23;;;;;;;6.70;3.13;;;;;;;;;;1752575;80;21117;-52
2022/12/05 10:56:50;;;;;;;8.50;2.75;;;;;;;;;;1749548;80;21888;-49
2022/12/05 10:59:21;;;;;;;8.10;3.53;;;;;;;;;;1745226;80;21903;-50
2022/12/05 11:01:53;;;;;;;5.43;2.57;;;;;;;;;;1737414;80;21093;-51
2022/12/05 11:04:30;;;;;;;8.30;3.67;;;;;;;;;;1738788;80;21081;-52
2022/12/05 11:07:01;;;;;;;7.30;3.33;;;;;;;;;;1740377;80;21045;-51
2022/12/05 11:09:29;;;;;;;7.90;3.73;;;;;;;;;;1742067;80;22406;-51
2022/12/05 11:12:17;;;;;;;9.80;4.17;;;;;;;;;;1737481;80;21275;-55
2022/12/05 11:14:59;;;;;;;15.87;3.80;;;;;;;;;;1732331;80;21546;-53
2022/12/05 11:17:30;;;;;;;15.40;4.60;;;;;;;;;;1738672;80;22201;-53
2022/12/05 11:19:56;;;;;;;9.57;4.13;;;;;;;;;;1741802;80;21333;-52
2022/12/05 11:22:30;;;;;;;13.90;4.30;;;;;;;;;;1736068;80;21828;-52
2022/12/05 11:24:57;;;;;;;19.42;6.17;;;;;;;;;;1743393;80;21056;-52
2022/12/05 11:27:29;;;;;;;9.27;3.00;;;;;;;;;;1735383;80;21123;-53
2022/12/05 11:30:01;;;;;;;8.17;4.03;;;;;;;;;;1740167;80;21830;-52
2022/12/05 11:32:30;;;;;;;12.23;4.70;;;;;;;;;;1743531;80;21123;-54
2022/12/05 11:35:13;;;;;;;8.87;4.07;;;;;;;;;;1741269;80;21629;-53
2022/12/05 11:37:43;;;;;;;10.63;4.47;;;;;;;;;;1741125;80;21038;-53
2022/12/05 11:40:19;;;;;;;11.07;5.07;;;;;;;;;;1738468;80;21055;-53
2022/12/05 11:43:07;;;;;;;12.20;4.07;;;;;;;;;;1743294;80;21645;-53
2022/12/05 11:45:37;;;;;;;7.67;3.30;;;;;;;;;;1741683;80;22543;-51
2022/12/05 11:48:13;;;;;;;8.20;4.00;;;;;;;;;;1737584;80;21860;-51
2022/12/05 11:51:04;;;;;;;9.93;3.37;;;;;;;;;;1668699;83;21138;-53
2022/12/05 11:53:55;;;;;;;10.60;3.80;;;;;;;;;;1740929;80;21699;-50
2022/12/05 11:56:36;;;;;;;10.47;3.27;;;;;;;;;;1738251;80;21144;-50
2022/12/05 11:59:29;;;;;;;9.70;4.13;;;;;;;;;;1740662;80;21606;-54
2022/12/05 12:02:14;;;;;;;16.10;5.90;;;;;;;;;;1736741;80;21942;-53
2022/12/05 12:04:42;;;;;;;;;;;;;;;;;;1742410;80;21414;-52
2022/12/05 12:07:15;;;;;;;10.87;3.10;;;;;;;;;;1675359;83;20339;-51
2022/12/05 12:09:55;;;;;;;6.85;2.83;;;;;;;;;;1740560;80;21109;-52
2022/12/05 12:12:48;;;;;;;6.63;2.37;;;;;;;;;;1750868;80;21100;-53
2022/12/05 12:15:45;;;;;;;8.57;2.30;;;;;;;;;;1743358;80;21962;-51
2022/12/05 12:18:42;;;;;;;7.97;2.40;;;;;;;;;;1743300;80;21089;-52
2022/12/05 12:21:35;;;;;;;7.40;3.03;;;;;;;;;;1737651;80;21072;-52
2022/12/05 12:24:17;;;;;;;11.07;2.10;;;;;;;;;;1743562;80;21119;-51
2022/12/05 12:26:47;;;;;;;7.83;2.20;;;;;;;;;;1748221;80;21070;-51
2022/12/05 12:29:20;;;;;;;7.27;2.83;;;;;;;;;;1747482;80;22882;-52
2022/12/05 12:31:56;;;;;;;4.63;2.10;;;;;;;;;;1744137;80;21666;-53
2022/12/05 12:34:32;;;;;;;9.83;2.40;;;;;;;;;;1745060;80;21044;-53
2022/12/05 12:37:04;;;;;;;11.17;3.00;;;;;;;;;;1741824;80;21125;-51
2022/12/05 12:39:51;;;;;;;6.07;2.50;;;;;;;;;;1739175;80;21515;-53
2022/12/05 12:42:23;;;;;;;5.70;2.90;;;;;;;;;;1743519;80;21847;-53
2022/12/05 12:45:10;;;;;;;3.53;1.77;;;;;;;;;;1736574;80;21800;-52
2022/12/05 12:47:40;;;;;;;8.10;2.10;;;;;;;;;;1742832;80;21025;-52
2022/12/05 12:50:13;;;;;;;8.90;2.20;;;;;;;;;;1745109;80;21093;-53
2022/12/05 12:52:55;;;;;;;12.70;2.37;;;;;;;;;;1747909;80;21465;-54
2022/12/05 12:55:23;;;;;;;5.07;2.23;;;;;;;;;;1748223;80;21799;-52
2022/12/05 12:58:14;;;;;;;9.27;3.20;;;;;;;;;;1747392;80;20958;-54
2022/12/05 13:01:02;;;;;;;6.53;2.03;;;;;;;;;;1727655;80;21476;-53
2022/12/05 13:03:46;;;;;;;9.47;2.83;;;;;;;;;;1721080;82;20977;-52
2022/12/05 13:06:15;;;;;;;7.65;2.87;;;;;;;;;;1724291;81;20998;-53
2022/12/05 13:08:45;;;;;;;13.23;4.50;;;;;;;;;;1718630;82;21769;-52
2022/12/05 13:11:12;;;;;;;12.50;3.27;;;;;;;;;;1717007;81;21339;-53
2022/12/05 13:13:41;;;;;;;9.87;2.43;;;;;;;;;;1716397;82;21045;-52
2022/12/05 13:16:07;;;;;;;8.87;2.80;;;;;;;;;;1718576;82;21099;-52
2022/12/05 13:18:34;;;;;;;8.23;2.67;;;;;;;;;;1717732;82;21078;-53
2022/12/05 13:21:02;;;;;;;8.80;2.93;;;;;;;;;;1715157;82;22970;-52
2022/12/05 13:23:31;;;;;;;4.73;2.03;;;;;;;;;;1715773;82;21161;-52
2022/12/05 13:25:58;;;;;;;8.63;2.97;;;;;;;;;;1718071;82;21009;-52
2022/12/05 13:28:29;;;;;;;11.07;2.90;;;;;;;;;;1722855;82;21127;-53
2022/12/05 13:31:04;;;;;;;7.73;3.03;;;;;;;;;;1726460;82;21565;-51
2022/12/05 13:33:32;;;;;;;6.63;2.70;;;;;;;;;;1718013;82;21811;-52
2022/12/05 13:42:16;;;;;;;9.23;3.57;;;;;;;;;;1713326;82;21049;-52
2022/12/05 13:44:55;;;;;;;8.10;2.70;;;;;;;;;;1714535;82;21053;-53
2022/12/05 13:47:32;;;;;;;6.07;2.93;;;;;;;;;;1714276;82;23652;-52
2022/12/05 13:50:11;;;;;;;13.00;2.77;;;;;;;;;;1719509;82;21279;-52
2022/12/05 13:52:48;;;;;;;6.07;2.90;;;;;;;;;;1723452;82;20996;-51
2022/12/05 13:55:21;;;;;;;5.03;2.00;;;;;;;;;;1720082;81;21017;-52
2022/12/05 13:57:49;;;;;;;5.97;2.40;;;;;;;;;;1714941;81;21054;-52
2022/12/05 14:00:25;;;;;;;5.23;2.37;;;;;;;;;;1724161;80;21799;-53
2022/12/05 14:02:53;;;;;;;8.07;1.73;;;;;;;;;;1742311;80;21470;-51
2022/12/05 14:05:26;;;;;;;5.93;2.63;;;;;;;;;;1739002;80;21593;-53
2022/12/05 14:07:53;;;;;;;8.93;2.30;;;;;;;;;;1745076;80;21672;-52
2022/12/05 14:10:29;;;;;;;8.37;2.13;;;;;;;;;;1737055;80;21095;-51
2022/12/05 14:12:57;;;;;;;5.73;1.90;;;;;;;;;;1734644;80;21971;-51
2022/12/05 14:15:34;;;;;;;5.23;1.67;;;;;;;;;;1731733;80;21056;-52
2022/12/05 14:18:13;;;;;;;7.10;2.73;;;;;;;;;;1743671;80;21122;-52
2022/12/05 14:21:08;;;;;;;4.87;1.43;;;;;;;;;;1735323;80;21097;-52
2022/12/05 14:23:56;;;;;;;5.40;2.22;;;;;;;;;;1738049;80;25872;-52
2022/12/05 14:26:38;;;;;;;6.43;1.90;;;;;;;;;;1742768;80;21815;-51
2022/12/05 14:29:24;;;;;;;4.97;1.97;;;;;;;;;;1741876;80;21089;-53
2022/12/05 14:32:18;;;;;;;4.08;1.30;;;;;;;;;;1734658;80;21184;-52
2022/12/05 14:35:08;;;;;;;10.03;4.33;;;;;;;;;;1741820;80;20973;-51
2022/12/05 14:37:39;;;;;;;8.97;2.30;;;;;;;;;;1744084;80;21522;-53
2022/12/05 14:40:24;;;;;;;5.80;2.20;;;;;;;;;;1744429;80;22305;-53
2022/12/05 14:43:11;;;;;;;8.10;2.00;;;;;;;;;;1743065;80;21394;-52
2022/12/05 14:45:46;;;;;;;5.73;1.80;;;;;;;;;;1743347;80;21004;-52
2022/12/05 14:48:18;;;;;;;5.25;1.52;;;;;;;;;;1721400;80;21061;-51
2022/12/05 14:50:48;;;;;;;5.33;1.50;;;;;;;;;;1742072;80;21056;-51
2022/12/05 14:53:30;;;;;;;3.47;1.10;;;;;;;;;;1738191;80;21801;-53
2022/12/05 14:56:02;;;;;;;4.00;1.40;;;;;;;;;;1743127;80;21085;-52
2022/12/05 14:58:35;;;;;;;6.37;1.37;;;;;;;;;;1740124;80;21535;-52
2022/12/05 15:01:04;;;;;;;6.27;1.63;;;;;;;;;;1749554;80;21057;-54
2022/12/05 15:03:33;;;;;;;5.67;1.60;;;;;;;;;;1747961;80;21083;-52
2022/12/05 15:08:38;;;;;;;5.87;1.40;;;;;;;;;;1737673;77;76361;-77
2022/12/05 15:11:04;;;;;;;8.30;2.73;;;;;;;;;;1695960;83;21562;-81
2022/12/05 15:13:30;;;;;;;6.87;2.30;;;;;;;;;;1696454;83;21817;-79
2022/12/05 15:16:06;;;;;;;6.53;1.60;;;;;;;;;;1689039;83;21521;-78
2022/12/05 15:18:43;;;;;;;4.13;1.90;;;;;;;;;;1691907;83;21085;-78
2022/12/05 15:21:26;;;;;;;6.13;2.00;;;;;;;;;;1692097;83;21101;-80
2022/12/05 15:23:59;;;;;;;7.93;2.37;;;;;;;;;;1689665;83;21118;-80
2022/12/05 15:26:49;;;;;;;6.85;1.75;;;;;;;;;;1689433;83;21382;-78
2022/12/05 15:29:22;;;;;;;8.33;2.33;;;;;;;;;;1689930;83;21101;-77